Time;durP1;ratioP1;P1;durP2;ratioP2;P2;SDS_P1;SDS_P2;PMS_P1;PMS_P2;Temp;Humidity;BMP_temperature;BMP_pressure;BME280_temperature;BME280_humidity;BME280_pressure;Samples;Min_cycle;Max_cycle;Signal;HPM_P1;HPM_P2
2023/02/04 00:00:18;;;;;;;14.37;5.60;;;9.10;99.90;;;;;;4877008;29;20506;-71
2023/02/04 00:02:44;;;;;;;12.00;4.90;;;9.10;99.90;;;;;;4892856;29;20438;-72
2023/02/04 00:05:11;;;;;;;17.30;4.87;;;9.10;99.90;;;;;;4890117;29;20452;-71
2023/02/04 00:07:40;;;;;;;14.77;5.30;;;9.10;99.90;;;;;;4894326;29;20462;-71
2023/02/04 00:10:09;;;;;;;16.20;5.33;;;9.10;99.90;;;;;;4879413;29;20861;-72
2023/02/04 00:12:37;;;;;;;19.97;5.27;;;9.10;99.90;;;;;;4878865;29;20478;-72
2023/02/04 00:15:06;;;;;;;9.33;4.53;;;9.10;99.90;;;;;;4877569;29;20430;-72
2023/02/04 00:17:32;;;;;;;13.17;4.63;;;9.10;99.90;;;;;;4877508;29;20435;-72
2023/02/04 00:20:00;;;;;;;12.20;5.03;;;9.10;99.90;;;;;;4877401;29;20461;-71
2023/02/04 00:22:28;;;;;;;21.67;5.70;;;9.10;99.90;;;;;;4877492;29;20792;-72
2023/02/04 00:24:54;;;;;;;18.73;5.77;;;9.10;99.90;;;;;;4861642;29;20901;-71
2023/02/04 00:27:20;;;;;;;17.57;4.73;;;9.10;99.90;;;;;;4877180;29;20506;-72
2023/02/04 00:29:46;;;;;;;10.57;4.77;;;9.10;99.90;;;;;;4862315;29;20426;-72
2023/02/04 00:32:12;;;;;;;11.33;5.10;;;9.10;99.90;;;;;;4877229;29;20940;-72
2023/02/04 00:34:41;;;;;;;19.33;4.87;;;9.10;99.90;;;;;;4878708;29;20465;-72
2023/02/04 00:37:07;;;;;;;12.67;4.90;;;9.10;99.90;;;;;;4874006;29;20487;-72
2023/02/04 00:39:35;;;;;;;11.00;5.13;;;9.10;99.90;;;;;;4874147;29;20457;-71
2023/02/04 00:42:07;;;;;;;9.40;4.23;;;9.10;99.90;;;;;;4870780;29;20534;-72
2023/02/04 00:44:35;;;;;;;13.03;4.80;;;9.10;99.90;;;;;;4892659;29;20439;-72
2023/02/04 00:47:04;;;;;;;11.20;4.83;;;9.10;99.90;;;;;;4878354;29;20442;-72
2023/02/04 00:49:36;;;;;;;12.07;5.00;;;9.10;99.90;;;;;;4877168;29;20872;-72
2023/02/04 00:52:04;;;;;;;16.17;4.47;;;9.10;99.90;;;;;;4876988;29;20427;-74
2023/02/04 00:54:30;;;;;;;14.83;4.50;;;9.10;99.90;;;;;;4861629;29;20514;-71
2023/02/04 00:56:56;;;;;;;5.87;3.70;;;9.00;99.90;;;;;;4878352;29;20489;-72
2023/02/04 00:59:23;;;;;;;15.07;4.40;;;9.00;99.90;;;;;;4877454;29;20909;-71
2023/02/04 01:01:51;;;;;;;13.47;4.77;;;9.00;99.90;;;;;;4876743;29;20510;-71
2023/02/04 01:04:17;;;;;;;15.90;4.20;;;9.00;99.90;;;;;;4861880;29;20486;-72
2023/02/04 01:06:45;;;;;;;17.70;4.23;;;9.00;99.90;;;;;;4860752;29;20809;-72
2023/02/04 01:09:14;;;;;;;11.40;4.63;;;9.00;99.90;;;;;;4892056;29;20513;-71
2023/02/04 01:11:41;;;;;;;16.23;4.33;;;9.00;99.90;;;;;;4886575;29;20446;-71
2023/02/04 01:14:09;;;;;;;17.80;4.33;;;9.00;99.90;;;;;;4846322;29;20433;-71
2023/02/04 01:16:35;;;;;;;14.20;4.10;;;9.10;99.90;;;;;;4877157;29;20454;-71
2023/02/04 01:19:03;;;;;;;11.37;4.50;;;9.00;99.90;;;;;;4861958;29;20532;-72
2023/02/04 01:21:33;;;;;;;15.00;4.60;;;9.00;99.90;;;;;;4873596;29;20485;-71
2023/02/04 01:24:01;;;;;;;13.73;4.50;;;9.00;99.90;;;;;;4875050;29;20433;-72
2023/02/04 01:26:27;;;;;;;12.90;4.17;;;9.00;99.90;;;;;;4857845;29;20836;-71
2023/02/04 01:28:56;;;;;;;13.73;3.90;;;9.00;99.90;;;;;;4875314;29;20431;-71
2023/02/04 01:31:27;;;;;;;13.63;4.00;;;9.00;99.90;;;;;;4873834;29;20532;-71
2023/02/04 01:33:52;;;;;;;12.03;4.33;;;9.00;99.90;;;;;;4856150;29;20445;-71
2023/02/04 01:36:23;;;;;;;16.97;4.83;;;9.00;99.90;;;;;;4860993;29;20454;-71
2023/02/04 01:38:49;;;;;;;9.33;3.80;;;9.00;99.90;;;;;;4890818;29;20559;-71
2023/02/04 01:41:17;;;;;;;11.87;4.50;;;9.00;99.90;;;;;;4872306;29;20986;-71
2023/02/04 01:43:44;;;;;;;12.93;3.50;;;9.00;99.90;;;;;;4863307;29;20521;-71
2023/02/04 01:46:11;;;;;;;15.00;4.20;;;9.00;99.90;;;;;;4877058;29;20452;-71
2023/02/04 01:48:42;;;;;;;10.67;4.20;;;9.00;99.90;;;;;;4878388;29;20495;-72
2023/02/04 01:51:15;;;;;;;10.20;3.60;;;9.00;99.90;;;;;;4860890;29;20435;-72
2023/02/04 01:53:41;;;;;;;13.77;4.20;;;9.00;99.90;;;;;;4880836;29;20934;-71
2023/02/04 01:56:16;;;;;;;13.23;4.30;;;9.00;99.90;;;;;;4863566;29;20501;-72
2023/02/04 01:58:42;;;;;;;10.10;3.60;;;9.00;99.90;;;;;;4895766;29;20545;-71
2023/02/04 02:01:41;;;;;;;7.40;3.80;;;9.00;99.90;;;;;;4879553;29;20453;-71
2023/02/04 02:04:09;;;;;;;16.43;4.77;;;9.00;99.90;;;;;;4877034;29;20451;-71
2023/02/04 02:06:38;;;;;;;8.70;3.70;;;9.00;99.90;;;;;;4878056;29;20490;-71
2023/02/04 02:09:09;;;;;;;13.77;3.63;;;9.00;99.90;;;;;;4881272;29;20407;-72
2023/02/04 02:11:38;;;;;;;12.20;3.50;;;9.00;99.90;;;;;;4881127;29;20466;-71
2023/02/04 02:14:06;;;;;;;18.53;4.30;;;9.00;99.90;;;;;;4865152;29;20437;-71
2023/02/04 02:16:33;;;;;;;13.53;3.87;;;9.00;99.90;;;;;;4880157;29;20490;-71
2023/02/04 02:18:59;;;;;;;7.73;3.73;;;8.90;99.90;;;;;;4864664;29;20451;-71
2023/02/04 02:21:54;;;;;;;13.00;3.80;;;8.90;99.90;;;;;;4880760;29;21048;-72
2023/02/04 02:24:31;;;;;;;12.37;4.03;;;9.00;99.90;;;;;;4879156;29;20446;-71
2023/02/04 02:27:07;;;;;;;10.97;4.10;;;8.90;99.90;;;;;;4880438;29;20471;-71
2023/02/04 02:29:34;;;;;;;13.27;4.30;;;8.90;99.90;;;;;;4880128;29;20467;-71
2023/02/04 02:32:00;;;;;;;15.00;3.40;;;8.90;99.90;;;;;;4863608;29;20456;-71
2023/02/04 02:34:28;;;;;;;11.87;3.50;;;8.90;99.90;;;;;;4885817;29;20797;-71
2023/02/04 02:36:55;;;;;;;12.53;3.63;;;8.90;99.90;;;;;;4888594;29;20447;-71
2023/02/04 02:39:23;;;;;;;12.00;4.13;;;8.90;99.90;;;;;;4870406;29;20480;-71
2023/02/04 02:41:51;;;;;;;13.40;3.70;;;8.90;99.90;;;;;;4878464;29;20461;-71
2023/02/04 02:44:22;;;;;;;11.00;3.70;;;8.90;99.90;;;;;;4879354;29;20422;-71
2023/02/04 02:46:51;;;;;;;7.13;3.07;;;8.90;99.90;;;;;;4864043;29;20462;-71
2023/02/04 02:49:20;;;;;;;10.40;3.53;;;8.90;99.90;;;;;;4879286;29;21136;-71
2023/02/04 02:51:47;;;;;;;11.13;3.70;;;8.90;99.90;;;;;;4879443;29;20508;-72
2023/02/04 02:54:25;;;;;;;12.67;4.23;;;8.90;99.90;;;;;;4879254;29;20919;-71
2023/02/04 02:56:57;;;;;;;7.90;3.30;;;8.90;99.90;;;;;;4894910;29;20806;-72
2023/02/04 02:59:25;;;;;;;8.37;3.70;;;8.90;99.90;;;;;;4879345;29;21140;-72
2023/02/04 03:01:56;;;;;;;17.33;4.13;;;8.90;99.90;;;;;;4862925;29;20534;-71
2023/02/04 03:04:28;;;;;;;19.80;4.20;;;8.90;99.90;;;;;;4860378;29;20455;-71
2023/02/04 03:06:58;;;;;;;16.33;4.33;;;8.90;99.90;;;;;;4846761;29;20920;-71
2023/02/04 03:09:28;;;;;;;15.70;3.60;;;8.90;99.90;;;;;;4878865;29;20952;-71
2023/02/04 03:11:59;;;;;;;9.40;3.70;;;8.90;99.90;;;;;;4879026;29;20439;-71
2023/02/04 03:14:28;;;;;;;12.83;3.27;;;8.90;99.90;;;;;;4878629;29;20427;-71
2023/02/04 03:17:03;;;;;;;13.27;4.17;;;8.90;99.90;;;;;;4880061;29;20437;-72
2023/02/04 03:19:32;;;;;;;13.50;4.00;;;8.90;99.90;;;;;;4885547;29;20419;-71
2023/02/04 03:22:02;;;;;;;12.00;3.90;;;8.90;99.90;;;;;;4878645;29;20505;-71
2023/02/04 03:24:31;;;;;;;12.03;4.10;;;8.90;99.90;;;;;;4879010;29;20492;-71
2023/02/04 03:27:02;;;;;;;14.17;3.60;;;8.90;99.90;;;;;;4862934;29;20475;-72
2023/02/04 03:29:30;;;;;;;8.83;3.87;;;8.90;99.90;;;;;;4879435;29;20445;-71
2023/02/04 03:31:58;;;;;;;13.23;4.17;;;8.90;99.90;;;;;;4877600;29;20442;-71
2023/02/04 03:34:25;;;;;;;16.10;3.93;;;8.90;99.90;;;;;;4879607;29;20461;-71
2023/02/04 03:36:50;;;;;;;10.20;3.80;;;8.90;99.90;;;;;;4882191;29;20940;-71
2023/02/04 03:39:16;;;;;;;9.00;3.97;;;8.90;99.90;;;;;;4879821;29;20471;-71
2023/02/04 03:41:47;;;;;;;8.20;3.60;;;8.90;99.90;;;;;;4879065;29;20462;-71
2023/02/04 03:44:15;;;;;;;16.27;3.97;;;8.90;99.90;;;;;;4862744;29;20445;-71
2023/02/04 03:46:41;;;;;;;12.73;4.00;;;8.90;99.90;;;;;;4878125;29;20522;-71
2023/02/04 03:49:07;;;;;;;11.43;3.43;;;8.80;99.90;;;;;;4847931;29;20537;-71
2023/02/04 03:51:37;;;;;;;10.23;3.40;;;8.90;99.90;;;;;;4879390;29;20434;-72
2023/02/04 03:54:03;;;;;;;14.10;4.00;;;8.90;99.90;;;;;;4878096;29;20434;-71
2023/02/04 03:56:32;;;;;;;11.93;4.50;;;8.90;99.90;;;;;;4877483;29;20451;-71
2023/02/04 03:59:02;;;;;;;10.37;4.10;;;8.90;99.90;;;;;;4878877;29;20438;-71
2023/02/04 04:01:28;;;;;;;11.00;3.67;;;8.90;99.90;;;;;;4893317;29;20459;-71
2023/02/04 04:03:59;;;;;;;11.30;3.30;;;8.80;99.90;;;;;;4863032;29;20423;-72
2023/02/04 04:06:25;;;;;;;12.90;4.00;;;8.80;99.90;;;;;;4879192;29;20478;-72
2023/02/04 04:08:56;;;;;;;9.50;3.13;;;8.80;99.90;;;;;;4863189;29;20433;-71
2023/02/04 04:11:22;;;;;;;10.60;5.90;;;8.80;99.90;;;;;;4877889;29;20890;-71
2023/02/04 04:13:50;;;;;;;15.23;4.27;;;8.80;99.90;;;;;;4878038;29;20517;-71
2023/02/04 04:16:21;;;;;;;8.17;3.10;;;8.80;99.90;;;;;;4862856;29;20466;-72
2023/02/04 04:18:54;;;;;;;12.13;3.70;;;8.80;99.90;;;;;;4877800;29;20517;-71
2023/02/04 04:21:25;;;;;;;11.70;4.53;;;8.80;99.90;;;;;;4878664;29;20979;-71
2023/02/04 04:23:53;;;;;;;13.70;4.23;;;8.80;99.90;;;;;;4879219;29;20440;-72
2023/02/04 04:26:21;;;;;;;11.37;3.30;;;8.80;99.90;;;;;;4878790;29;20210;-71
2023/02/04 04:28:52;;;;;;;11.00;3.80;;;8.80;99.90;;;;;;4879155;29;20442;-71
2023/02/04 04:31:23;;;;;;;9.23;3.30;;;8.80;99.90;;;;;;4864023;29;20446;-71
2023/02/04 04:33:49;;;;;;;12.70;3.40;;;8.80;99.90;;;;;;4877272;29;20503;-71
2023/02/04 04:36:17;;;;;;;13.10;3.37;;;8.80;99.90;;;;;;4878881;29;20452;-71
2023/02/04 04:38:43;;;;;;;11.73;3.50;;;8.80;99.90;;;;;;4878967;29;20790;-71
2023/02/04 04:41:09;;;;;;;12.60;3.73;;;8.80;99.90;;;;;;4861834;29;20483;-71
2023/02/04 04:43:37;;;;;;;10.40;3.80;;;8.80;99.90;;;;;;4877372;29;20517;-72
2023/02/04 04:46:06;;;;;;;12.70;4.20;;;8.80;99.90;;;;;;4861476;29;20547;-71
2023/02/04 04:48:35;;;;;;;16.97;3.20;;;8.80;99.90;;;;;;4877758;29;20469;-72
2023/02/04 04:51:01;;;;;;;14.70;3.43;;;8.80;99.90;;;;;;4877579;29;20462;-72
2023/02/04 04:53:32;;;;;;;11.30;3.50;;;8.80;99.90;;;;;;4877569;29;20559;-72
2023/02/04 04:56:00;;;;;;;10.93;3.33;;;8.80;99.90;;;;;;4872615;29;20503;-72
2023/02/04 04:58:30;;;;;;;14.53;4.03;;;8.80;99.90;;;;;;4873336;29;20473;-72
2023/02/04 05:00:59;;;;;;;9.23;3.03;;;8.80;99.90;;;;;;4877186;29;20480;-72
2023/02/04 05:03:28;;;;;;;12.43;3.50;;;8.80;99.90;;;;;;4877255;29;20514;-72
2023/02/04 05:05:59;;;;;;;9.17;4.13;;;8.80;99.90;;;;;;4876719;29;20450;-72
2023/02/04 05:08:25;;;;;;;13.90;2.90;;;8.80;99.90;;;;;;4858890;29;20420;-72
2023/02/04 05:10:52;;;;;;;9.07;3.60;;;8.80;99.90;;;;;;4866206;29;20474;-72
2023/02/04 05:13:17;;;;;;;9.30;3.33;;;8.80;99.90;;;;;;4877671;29;20435;-72
2023/02/04 05:15:43;;;;;;;9.60;3.47;;;8.70;99.90;;;;;;4862013;29;20485;-72
2023/02/04 05:18:12;;;;;;;12.63;3.23;;;8.80;99.90;;;;;;4861263;29;20827;-72
2023/02/04 05:20:38;;;;;;;12.87;4.57;;;8.80;99.90;;;;;;4861628;29;20522;-72
2023/02/04 05:23:04;;;;;;;8.40;3.30;;;8.80;99.90;;;;;;4877009;29;20947;-71
2023/02/04 05:25:30;;;;;;;10.93;4.23;;;8.80;99.90;;;;;;4878196;29;20447;-72
2023/02/04 05:27:58;;;;;;;13.40;4.37;;;8.70;99.90;;;;;;4877705;29;20442;-72
2023/02/04 05:30:26;;;;;;;12.63;3.53;;;8.70;99.90;;;;;;4878333;29;20898;-72
2023/02/04 05:32:57;;;;;;;12.50;3.33;;;8.80;99.90;;;;;;4861078;29;20454;-72
2023/02/04 05:35:23;;;;;;;11.23;3.57;;;8.70;99.90;;;;;;4877983;29;20532;-72
2023/02/04 05:37:51;;;;;;;10.33;3.27;;;8.70;99.90;;;;;;4860610;29;20472;-71
2023/02/04 05:40:17;;;;;;;12.23;3.20;;;8.70;99.90;;;;;;4886874;29;20493;-72
2023/02/04 05:42:43;;;;;;;10.97;4.80;;;8.70;99.90;;;;;;4861271;29;20447;-72
2023/02/04 05:45:15;;;;;;;9.17;3.90;;;8.70;99.90;;;;;;4877921;29;20482;-72
2023/02/04 05:47:42;;;;;;;7.13;3.57;;;8.70;99.90;;;;;;4877766;29;20863;-72
2023/02/04 05:50:13;;;;;;;5.77;2.80;;;8.70;99.90;;;;;;4877008;29;20461;-72
2023/02/04 05:52:42;;;;;;;9.73;3.60;;;8.70;99.90;;;;;;4876494;29;20490;-72
2023/02/04 05:55:11;;;;;;;8.00;3.57;;;8.70;99.90;;;;;;4877260;29;20462;-72
2023/02/04 05:57:38;;;;;;;12.30;3.40;;;8.70;99.90;;;;;;4877486;29;20513;-72
2023/02/04 06:00:07;;;;;;;7.10;3.50;;;8.70;99.90;;;;;;4876672;29;20483;-72
2023/02/04 06:02:41;;;;;;;6.77;3.37;;;8.70;99.90;;;;;;4877375;29;20461;-72
2023/02/04 06:05:10;;;;;;;8.27;3.33;;;8.70;99.90;;;;;;4877813;29;20449;-72
2023/02/04 06:07:39;;;;;;;9.87;3.60;;;8.70;99.90;;;;;;4876313;29;20458;-72
2023/02/04 06:10:10;;;;;;;13.10;3.53;;;8.70;99.90;;;;;;4876503;29;20497;-72
2023/02/04 06:12:38;;;;;;;10.80;3.27;;;8.70;99.90;;;;;;4877021;29;20421;-72
2023/02/04 06:15:10;;;;;;;13.10;3.20;;;8.70;99.90;;;;;;4876036;29;20426;-71
2023/02/04 06:17:39;;;;;;;11.07;3.30;;;8.70;99.90;;;;;;4933606;23;20615;-73
2023/02/04 06:20:09;;;;;;;11.07;3.03;;;8.70;99.90;;;;;;4866155;29;20512;-73
2023/02/04 06:22:38;;;;;;;8.33;3.30;;;8.70;99.90;;;;;;4876610;29;20449;-73
2023/02/04 06:25:07;;;;;;;10.27;3.80;;;8.70;99.90;;;;;;4867565;29;20446;-73
2023/02/04 06:27:33;;;;;;;9.47;3.10;;;8.70;99.90;;;;;;4880206;29;20435;-73
2023/02/04 06:29:59;;;;;;;5.60;3.00;;;8.70;99.90;;;;;;4879788;29;20442;-72
2023/02/04 06:32:27;;;;;;;13.03;3.10;;;8.70;99.90;;;;;;4880940;29;20426;-73
2023/02/04 06:34:53;;;;;;;9.77;3.20;;;8.60;99.90;;;;;;4879492;29;20457;-73
2023/02/04 06:37:19;;;;;;;8.80;3.37;;;8.70;99.90;;;;;;4876228;29;20467;-73
2023/02/04 06:39:48;;;;;;;7.80;2.80;;;8.70;99.90;;;;;;4861676;29;20411;-73
2023/02/04 06:42:14;;;;;;;8.77;2.83;;;8.60;99.90;;;;;;4880105;29;20466;-73
2023/02/04 06:44:40;;;;;;;8.07;2.80;;;8.60;99.90;;;;;;4864161;29;20437;-73
2023/02/04 06:47:06;;;;;;;11.07;3.40;;;8.70;99.90;;;;;;4880135;29;20214;-73
2023/02/04 06:49:39;;;;;;;19.33;3.03;;;8.70;99.90;;;;;;4849029;29;20419;-73
2023/02/04 06:52:11;;;;;;;10.33;2.50;;;8.60;99.90;;;;;;4878468;29;20999;-73
2023/02/04 06:54:41;;;;;;;7.73;3.13;;;8.70;99.90;;;;;;4879649;29;20433;-73
2023/02/04 06:57:12;;;;;;;6.93;2.80;;;8.60;99.90;;;;;;4878754;29;20442;-73
2023/02/04 06:59:42;;;;;;;9.33;2.93;;;8.70;99.90;;;;;;4879440;29;20449;-73
2023/02/04 07:02:11;;;;;;;10.53;3.20;;;8.60;99.90;;;;;;4879206;29;20561;-73
2023/02/04 07:04:42;;;;;;;10.53;3.53;;;8.60;99.90;;;;;;4860805;29;20444;-73
2023/02/04 07:07:11;;;;;;;9.20;3.03;;;8.60;99.90;;;;;;4893844;29;20448;-73
2023/02/04 07:09:39;;;;;;;7.83;2.77;;;8.60;99.90;;;;;;4878335;29;20528;-73
2023/02/04 07:12:10;;;;;;;10.67;2.93;;;8.60;99.90;;;;;;4894644;29;20464;-73
2023/02/04 07:14:36;;;;;;;10.13;2.83;;;8.60;99.90;;;;;;4863310;29;20469;-73
2023/02/04 07:17:02;;;;;;;7.33;2.60;;;8.60;99.90;;;;;;4894297;29;20509;-73
2023/02/04 07:19:28;;;;;;;10.73;3.10;;;8.60;99.90;;;;;;4879001;29;20453;-73
2023/02/04 07:21:55;;;;;;;12.60;3.50;;;8.60;99.90;;;;;;4894393;29;20456;-73
2023/02/04 07:24:24;;;;;;;6.63;2.77;;;8.60;99.90;;;;;;4878213;29;20453;-73
2023/02/04 07:26:50;;;;;;;10.10;3.50;;;8.60;99.90;;;;;;4877203;29;20487;-73
2023/02/04 07:29:18;;;;;;;9.60;3.20;;;8.60;99.90;;;;;;4878659;29;20448;-73
2023/02/04 07:31:46;;;;;;;9.63;2.90;;;8.60;99.90;;;;;;4873978;29;20431;-73
2023/02/04 07:34:13;;;;;;;11.40;3.07;;;8.60;99.90;;;;;;4877537;29;20466;-73
2023/02/04 07:36:41;;;;;;;7.37;2.90;;;8.60;99.90;;;;;;4863362;29;20450;-73
2023/02/04 07:39:08;;;;;;;8.97;3.23;;;8.60;99.90;;;;;;4879327;29;20462;-73
2023/02/04 07:41:36;;;;;;;5.20;2.33;;;8.60;99.90;;;;;;4878425;29;20562;-73
2023/02/04 07:44:03;;;;;;;8.17;3.33;;;8.60;99.90;;;;;;4878863;29;20551;-73
2023/02/04 07:46:31;;;;;;;7.53;2.80;;;8.60;99.90;;;;;;4876016;29;20521;-73
2023/02/04 07:49:00;;;;;;;5.80;2.70;;;8.60;99.90;;;;;;4860093;29;20936;-73
2023/02/04 07:51:26;;;;;;;5.90;2.80;;;8.60;99.90;;;;;;4876716;29;20485;-73
2023/02/04 07:53:54;;;;;;;11.90;3.40;;;8.60;99.90;;;;;;4877953;29;20537;-73
2023/02/04 07:56:20;;;;;;;6.27;2.37;;;8.60;99.90;;;;;;4877122;29;21010;-73
2023/02/04 07:58:46;;;;;;;9.83;3.60;;;8.60;99.90;;;;;;4878865;29;20469;-73
2023/02/04 08:01:15;;;;;;;7.13;2.43;;;8.60;99.90;;;;;;4862909;29;20572;-73
2023/02/04 08:03:44;;;;;;;14.93;3.97;;;8.60;99.90;;;;;;4890147;29;20539;-73
2023/02/04 08:06:12;;;;;;;8.77;3.23;;;8.60;99.90;;;;;;4862250;29;20490;-72
2023/02/04 08:08:40;;;;;;;9.53;2.53;;;8.60;99.90;;;;;;4876914;29;20430;-73
2023/02/04 08:11:13;;;;;;;9.33;3.83;;;8.60;99.90;;;;;;4877949;29;20461;-73
2023/02/04 08:13:39;;;;;;;8.73;2.93;;;8.50;99.90;;;;;;4892882;29;20439;-72
2023/02/04 08:16:05;;;;;;;6.47;3.13;;;8.60;99.90;;;;;;4877798;29;20464;-72
2023/02/04 08:18:31;;;;;;;7.30;4.40;;;8.50;99.90;;;;;;4878929;29;20935;-73
2023/02/04 08:21:00;;;;;;;12.50;3.77;;;8.60;99.90;;;;;;4875158;29;20484;-73
2023/02/04 08:23:26;;;;;;;8.90;2.97;;;8.60;99.90;;;;;;4891177;29;20971;-72
2023/02/04 08:25:52;;;;;;;7.20;3.10;;;8.50;99.90;;;;;;4890764;29;20454;-73
2023/02/04 08:28:21;;;;;;;6.70;2.87;;;8.60;99.90;;;;;;4873595;29;20796;-72
2023/02/04 08:30:47;;;;;;;15.00;3.60;;;8.50;99.90;;;;;;4858769;29;20434;-72
2023/02/04 08:33:15;;;;;;;11.30;4.10;;;8.50;99.90;;;;;;4888811;29;20448;-73
2023/02/04 08:35:45;;;;;;;7.23;2.70;;;8.50;99.90;;;;;;4859908;29;20986;-73
2023/02/04 08:38:11;;;;;;;7.33;2.83;;;8.50;99.90;;;;;;4876625;29;20433;-73
2023/02/04 08:40:40;;;;;;;12.17;4.07;;;8.50;99.90;;;;;;4905927;29;20469;-73
2023/02/04 08:43:06;;;;;;;13.93;3.43;;;8.50;99.90;;;;;;4893699;29;20469;-72
2023/02/04 08:45:37;;;;;;;16.70;3.00;;;8.50;99.90;;;;;;4875759;29;20462;-72
2023/02/04 08:48:03;;;;;;;12.33;3.97;;;8.50;99.90;;;;;;4873093;29;20533;-73
2023/02/04 08:50:29;;;;;;;11.00;3.40;;;8.50;99.90;;;;;;4874041;29;20447;-73
2023/02/04 08:53:02;;;;;;;7.30;3.33;;;8.50;99.90;;;;;;4874920;29;20473;-73
2023/02/04 08:55:28;;;;;;;5.77;2.93;;;8.50;99.90;;;;;;4872682;29;21063;-73
2023/02/04 08:57:54;;;;;;;9.40;3.07;;;8.50;99.90;;;;;;4875498;29;21006;-72
2023/02/04 09:00:21;;;;;;;7.20;3.07;;;8.50;99.90;;;;;;4867235;29;20451;-73
2023/02/04 09:02:49;;;;;;;9.10;3.00;;;8.50;99.90;;;;;;4874390;29;20509;-72
2023/02/04 09:05:18;;;;;;;4.67;2.20;;;8.50;99.90;;;;;;4872512;29;20946;-73
2023/02/04 09:07:46;;;;;;;10.70;2.50;;;8.50;99.90;;;;;;4874098;29;20598;-71
2023/02/04 09:10:12;;;;;;;11.23;3.50;;;8.50;99.90;;;;;;4873582;29;21045;-72
2023/02/04 09:12:38;;;;;;;9.03;3.50;;;8.50;99.90;;;;;;4874803;29;20434;-71
2023/02/04 09:15:04;;;;;;;13.87;4.40;;;8.50;99.90;;;;;;4874991;29;20433;-71
2023/02/04 09:17:30;;;;;;;9.20;3.40;;;8.60;99.90;;;;;;4874193;29;20485;-71
2023/02/04 09:19:56;;;;;;;6.27;3.10;;;8.60;99.90;;;;;;4890196;29;20410;-71
2023/02/04 09:22:25;;;;;;;8.87;3.53;;;8.60;99.90;;;;;;4874030;29;21113;-71
2023/02/04 09:24:51;;;;;;;7.77;2.87;;;8.50;99.90;;;;;;4871505;29;20315;-71
2023/02/04 09:27:18;;;;;;;6.23;3.00;;;8.60;99.90;;;;;;4864281;29;20992;-71
2023/02/04 09:29:46;;;;;;;11.40;3.33;;;8.60;99.90;;;;;;4874897;29;20510;-71
2023/02/04 09:32:13;;;;;;;12.40;3.60;;;8.60;99.90;;;;;;4872630;29;20480;-71
2023/02/04 09:34:39;;;;;;;12.37;3.20;;;8.60;99.90;;;;;;4873457;29;20456;-71
2023/02/04 09:37:05;;;;;;;11.30;3.90;;;8.60;99.90;;;;;;4858621;29;20469;-71
2023/02/04 09:39:31;;;;;;;9.30;2.90;;;8.60;99.90;;;;;;4874424;29;20676;-71
2023/02/04 09:41:58;;;;;;;12.53;3.90;;;8.60;99.90;;;;;;4873989;29;20481;-71
2023/02/04 09:44:28;;;;;;;11.60;3.50;;;8.60;99.90;;;;;;4889952;29;20449;-71
2023/02/04 09:46:57;;;;;;;8.80;3.23;;;8.60;99.90;;;;;;4865096;29;20557;-71
2023/02/04 09:49:24;;;;;;;12.27;3.27;;;8.60;99.90;;;;;;4844315;29;20417;-71
2023/02/04 09:51:53;;;;;;;9.60;3.10;;;8.60;99.90;;;;;;4876883;29;20435;-71
2023/02/04 09:54:21;;;;;;;9.33;3.17;;;8.60;99.90;;;;;;4876901;29;20524;-71
2023/02/04 09:56:48;;;;;;;6.70;2.87;;;8.60;99.90;;;;;;4877052;29;20469;-70
2023/02/04 09:59:19;;;;;;;7.50;3.00;;;8.60;99.90;;;;;;4880135;29;20446;-70
2023/02/04 10:02:02;;;;;;;15.50;4.13;;;8.60;99.90;;;;;;4893800;29;20473;-70
2023/02/04 10:04:28;;;;;;;11.37;3.73;;;8.70;99.90;;;;;;4880184;29;20437;-71
2023/02/04 10:06:59;;;;;;;14.80;4.40;;;8.70;99.90;;;;;;4879628;29;20482;-71
2023/02/04 10:09:28;;;;;;;9.60;4.23;;;8.70;99.90;;;;;;4879660;29;20431;-71
2023/02/04 10:11:56;;;;;;;9.73;4.10;;;8.70;99.90;;;;;;4864277;29;20509;-71
2023/02/04 10:14:23;;;;;;;10.73;4.63;;;8.70;99.90;;;;;;4895789;29;20442;-71
2023/02/04 10:17:02;;;;;;;10.03;4.67;;;8.70;99.90;;;;;;4895260;29;20486;-71
2023/02/04 10:19:29;;;;;;;12.23;4.17;;;8.70;99.90;;;;;;4861623;29;20503;-71
2023/02/04 10:21:58;;;;;;;11.67;4.27;;;8.70;99.90;;;;;;4873018;29;20956;-71
2023/02/04 10:24:29;;;;;;;13.80;4.87;;;8.70;99.90;;;;;;4879833;29;20509;-71
2023/02/04 10:27:10;;;;;;;14.47;5.90;;;8.70;99.90;;;;;;4880482;29;20574;-71
2023/02/04 10:29:36;;;;;;;14.67;4.90;;;8.80;99.90;;;;;;4880189;29;20546;-71
2023/02/04 10:32:02;;;;;;;21.17;6.50;;;8.70;99.90;;;;;;4879655;29;20464;-71
2023/02/04 10:34:38;;;;;;;14.27;5.80;;;8.80;99.90;;;;;;4894426;29;20430;-70
2023/02/04 10:37:20;;;;;;;13.20;5.40;;;8.80;99.90;;;;;;4894189;29;20953;-71
2023/02/04 10:39:48;;;;;;;14.37;5.07;;;8.80;99.90;;;;;;4849065;29;20442;-71
2023/02/04 10:42:26;;;;;;;13.67;4.73;;;8.80;99.90;;;;;;4880426;29;20551;-71
2023/02/04 10:44:55;;;;;;;15.47;5.90;;;8.80;99.90;;;;;;4894955;29;20504;-71
2023/02/04 10:47:23;;;;;;;21.30;5.83;;;8.80;99.90;;;;;;4889645;29;20451;-71
2023/02/04 10:49:55;;;;;;;14.07;5.40;;;8.80;99.90;;;;;;4892346;29;20466;-71
2023/02/04 10:52:33;;;;;;;22.03;6.13;;;8.80;99.90;;;;;;4888118;29;20449;-71
2023/02/04 10:55:04;;;;;;;24.90;6.03;;;8.80;99.90;;;;;;4888735;29;20429;-70
2023/02/04 10:57:34;;;;;;;16.87;6.43;;;8.80;99.90;;;;;;4893973;29;20470;-71
2023/02/04 11:00:05;;;;;;;16.47;5.50;;;8.80;99.90;;;;;;4881816;29;20445;-71
2023/02/04 11:03:11;;;;;;;20.30;6.80;;;8.80;99.90;;;;;;4902243;29;20461;-71
2023/02/04 11:05:38;;;;;;;13.90;5.73;;;8.90;99.90;;;;;;4889608;29;20470;-70
2023/02/04 11:08:23;;;;;;;17.93;6.80;;;8.90;99.90;;;;;;4884195;29;20436;-72
2023/02/04 11:10:58;;;;;;;18.90;7.07;;;8.90;99.90;;;;;;4885860;29;20912;-71
2023/02/04 11:13:27;;;;;;;23.50;7.80;;;8.90;99.90;;;;;;4892962;29;20435;-71
2023/02/04 11:16:16;;;;;;;17.23;6.40;;;8.90;99.90;;;;;;4871763;29;20446;-71
2023/02/04 11:18:57;;;;;;;23.13;8.00;;;8.90;99.90;;;;;;4888584;29;20469;-70
2023/02/04 11:21:33;;;;;;;22.83;7.40;;;8.90;99.90;;;;;;4886446;29;20564;-72
2023/02/04 11:24:11;;;;;;;24.60;9.57;;;8.90;99.90;;;;;;4904194;29;20931;-70
2023/02/04 11:26:39;;;;;;;19.10;8.70;;;8.90;99.90;;;;;;4890524;29;20457;-71
2023/02/04 11:29:04;;;;;;;28.00;9.87;;;9.00;99.90;;;;;;4885851;29;20473;-70
2023/02/04 11:31:34;;;;;;;23.77;10.20;;;9.00;99.90;;;;;;4872645;29;20454;-70
2023/02/04 11:34:24;;;;;;;25.20;10.93;;;9.00;99.90;;;;;;4894221;29;20422;-70
2023/02/04 11:36:55;;;;;;;24.40;11.40;;;9.00;99.90;;;;;;4893708;29;20454;-70
2023/02/04 11:39:25;;;;;;;23.60;12.70;;;9.00;99.90;;;;;;4894022;29;20451;-70
2023/02/04 11:41:57;;;;;;;31.83;12.30;;;9.00;99.90;;;;;;4878762;29;20470;-70
2023/02/04 11:44:26;;;;;;;24.90;11.60;;;9.00;99.90;;;;;;4893099;29;20433;-70
2023/02/04 11:47:01;;;;;;;34.33;13.10;;;9.00;99.90;;;;;;4887161;29;20449;-71
2023/02/04 11:49:34;;;;;;;28.37;13.10;;;9.00;99.90;;;;;;4895612;29;20425;-73
2023/02/04 11:52:11;;;;;;;27.97;14.20;;;9.00;99.90;;;;;;4902390;29;20443;-69
2023/02/04 11:54:40;;;;;;;31.67;13.73;;;9.10;99.90;;;;;;4886640;29;20441;-73
2023/02/04 11:57:08;;;;;;;30.20;13.80;;;9.10;99.90;;;;;;4886653;29;20449;-72
2023/02/04 11:59:36;;;;;;;30.63;15.37;;;9.10;99.90;;;;;;4879070;29;20442;-71
2023/02/04 12:02:26;;;;;;;37.90;14.90;;;9.10;99.90;;;;;;4893603;29;20593;-73
2023/02/04 12:05:07;;;;;;;33.80;15.90;;;9.10;99.90;;;;;;4893594;29;20514;-73
2023/02/04 12:07:35;;;;;;;28.00;14.90;;;9.10;99.90;;;;;;4893610;29;20450;-72
2023/02/04 12:10:16;;;;;;;27.70;13.53;;;9.10;99.90;;;;;;4877566;29;21008;-72
2023/02/04 12:12:56;;;;;;;29.10;15.50;;;9.20;99.90;;;;;;4878193;29;20433;-72
2023/02/04 12:15:34;;;;;;;32.33;14.70;;;9.20;99.90;;;;;;4892655;29;20601;-75
2023/02/04 12:18:11;;;;;;;30.90;16.47;;;9.20;99.90;;;;;;4877959;29;20469;-75
2023/02/04 12:20:38;;;;;;;33.43;15.87;;;9.20;99.90;;;;;;4890746;29;20971;-74
2023/02/04 12:23:04;;;;;;;28.90;16.00;;;9.20;99.90;;;;;;4892543;29;20852;-74
2023/02/04 12:25:33;;;;;;;34.13;16.60;;;9.20;99.90;;;;;;4877134;29;20458;-74
2023/02/04 12:28:00;;;;;;;25.47;13.60;;;9.20;99.90;;;;;;4893301;29;20540;-74
2023/02/04 12:30:28;;;;;;;34.47;13.73;;;9.20;99.90;;;;;;4877113;29;20438;-74
2023/02/04 12:32:54;;;;;;;31.00;14.03;;;9.20;99.90;;;;;;4869188;29;20426;-73
2023/02/04 12:35:20;;;;;;;26.43;14.83;;;9.20;99.90;;;;;;4861447;29;20842;-74
2023/02/04 12:37:49;;;;;;;29.57;14.20;;;9.30;99.90;;;;;;4872210;29;20442;-75
2023/02/04 12:40:17;;;;;;;26.33;14.40;;;9.30;99.90;;;;;;4876485;29;20442;-73
2023/02/04 12:42:44;;;;;;;24.13;12.03;;;9.30;99.90;;;;;;4893077;29;20483;-73
2023/02/04 12:45:11;;;;;;;30.50;14.77;;;9.30;99.90;;;;;;4869093;29;20553;-73
2023/02/04 12:47:38;;;;;;;26.03;13.67;;;9.30;99.90;;;;;;4876839;29;20477;-74
2023/02/04 12:50:07;;;;;;;21.47;12.03;;;9.30;99.90;;;;;;4877964;29;20524;-76
2023/02/04 12:52:35;;;;;;;24.63;12.07;;;9.30;99.90;;;;;;4869913;29;20812;-75
2023/02/04 12:55:03;;;;;;;32.47;13.70;;;9.30;99.90;;;;;;4892667;29;20406;-75
2023/02/04 12:57:30;;;;;;;30.57;13.50;;;9.40;99.90;;;;;;4891547;29;20534;-75